createdAt,value
2023-03-26T00:01:39.880Z,28.02
2023-03-26T00:04:08.754Z,26.65
2023-03-26T00:06:40.141Z,31.57
2023-03-26T00:09:12.424Z,32.65
2023-03-26T00:11:40.166Z,27.85
2023-03-26T00:14:13.219Z,26.27
2023-03-26T00:16:42.420Z,19.95
2023-03-26T00:19:12.196Z,20.77
2023-03-26T00:21:40.995Z,18.00
2023-03-26T00:24:14.194Z,16.45
2023-03-26T00:26:42.348Z,17.80
2023-03-26T00:29:12.128Z,15.75
2023-03-26T00:31:40.548Z,17.30
2023-03-26T00:34:10.056Z,11.35
2023-03-26T00:36:37.672Z,10.95
2023-03-26T00:39:05.801Z,8.13
2023-03-26T00:41:35.950Z,5.10
2023-03-26T00:44:03.804Z,6.60
2023-03-26T00:46:31.744Z,6.12
2023-03-26T00:49:02.832Z,6.92
2023-03-26T00:51:32.869Z,4.55
2023-03-26T00:54:01.105Z,5.90
2023-03-26T00:56:28.902Z,7.80
2023-03-26T00:58:57.226Z,5.42
2023-03-26T01:01:28.449Z,7.42
2023-03-26T01:06:33.824Z,6.62
2023-03-26T01:09:20.788Z,9.08
2023-03-26T01:11:49.651Z,9.50
2023-03-26T01:14:23.250Z,9.03
2023-03-26T01:16:55.314Z,6.92
2023-03-26T01:19:46.804Z,9.30
2023-03-26T01:22:18.945Z,6.45
2023-03-26T01:24:48.982Z,7.25
2023-03-26T01:27:50.336Z,5.50
2023-03-26T01:30:41.742Z,4.47
2023-03-26T01:33:38.774Z,5.90
2023-03-26T01:36:21.102Z,5.17
2023-03-26T01:39:15.917Z,6.20
2023-03-26T01:42:04.942Z,7.85
2023-03-26T01:44:40.981Z,6.97
2023-03-26T01:47:12.106Z,4.78
2023-03-26T01:49:40.015Z,5.70
2023-03-26T01:52:19.096Z,5.08
2023-03-26T01:54:47.166Z,4.90
2023-03-26T01:57:29.593Z,5.50
2023-03-26T02:00:25.700Z,6.00
2023-03-26T02:05:45.901Z,5.37
2023-03-26T02:08:35.832Z,6.05
2023-03-26T02:11:11.496Z,5.08
2023-03-26T02:13:42.836Z,4.53
2023-03-26T02:16:15.788Z,5.70
2023-03-26T02:18:45.708Z,5.78
2023-03-26T02:21:19.728Z,7.25
2023-03-26T02:24:03.739Z,4.67
2023-03-26T02:26:37.200Z,6.10
2023-03-26T02:29:09.457Z,6.97
2023-03-26T02:31:37.726Z,4.97
2023-03-26T02:34:05.515Z,5.95
2023-03-26T02:36:35.443Z,4.78
2023-03-26T02:39:04.593Z,5.28
2023-03-26T02:41:36.533Z,4.40
2023-03-26T02:44:06.451Z,5.97
2023-03-26T02:46:38.734Z,8.50
2023-03-26T02:49:14.478Z,7.65
2023-03-26T02:51:43.007Z,8.93
2023-03-26T02:54:12.465Z,7.37
2023-03-26T02:56:42.890Z,6.15
2023-03-26T02:59:15.371Z,8.93
2023-03-26T03:01:43.898Z,7.78
2023-03-26T03:04:13.265Z,6.12
2023-03-26T03:06:41.571Z,9.13
2023-03-26T03:09:09.311Z,7.90
2023-03-26T03:11:38.694Z,7.33
2023-03-26T03:14:07.019Z,6.17
2023-03-26T03:16:34.980Z,8.48
2023-03-26T03:21:40.452Z,7.30
2023-03-26T03:24:09.090Z,8.40
2023-03-26T03:26:40.852Z,11.18
2023-03-26T03:29:16.203Z,10.23
2023-03-26T03:31:44.563Z,11.18
2023-03-26T03:34:14.074Z,9.23
2023-03-26T03:36:45.465Z,11.05
2023-03-26T03:39:15.688Z,8.65
2023-03-26T03:41:44.505Z,10.03
2023-03-26T03:44:14.019Z,7.65
2023-03-26T03:46:41.709Z,6.53
2023-03-26T03:49:09.416Z,5.85
2023-03-26T03:51:38.455Z,7.22
2023-03-26T03:54:08.128Z,6.42
2023-03-26T03:56:46.751Z,9.13
2023-03-26T03:59:17.082Z,6.37
2023-03-26T04:01:47.951Z,7.67
2023-03-26T04:04:17.926Z,7.75
2023-03-26T04:06:53.439Z,12.45
2023-03-26T04:09:21.745Z,9.28
2023-03-26T04:11:50.526Z,9.23
2023-03-26T04:14:29.298Z,10.20
2023-03-26T04:17:01.682Z,7.20
2023-03-26T04:19:30.724Z,9.45
2023-03-26T04:22:00.113Z,10.18
2023-03-26T04:24:30.184Z,10.20
2023-03-26T04:27:16.575Z,11.88
2023-03-26T04:29:49.286Z,12.05
2023-03-26T04:32:30.227Z,12.40
2023-03-26T04:34:59.741Z,13.28
2023-03-26T04:40:20.030Z,13.20
2023-03-26T04:43:05.954Z,13.00
2023-03-26T04:45:52.671Z,15.38
2023-03-26T04:48:21.567Z,15.48
2023-03-26T04:50:49.855Z,13.72
2023-03-26T04:53:23.773Z,12.47
2023-03-26T04:56:25.405Z,15.70
2023-03-26T04:59:01.948Z,15.08
2023-03-26T05:01:31.654Z,17.82
2023-03-26T05:03:59.540Z,19.40
2023-03-26T05:06:28.212Z,17.62
2023-03-26T05:08:56.739Z,14.78
2023-03-26T05:11:32.473Z,14.65
2023-03-26T05:14:00.506Z,12.93
2023-03-26T05:16:29.579Z,12.25
2023-03-26T05:18:59.214Z,12.80
2023-03-26T05:21:28.905Z,21.65
2023-03-26T05:23:56.612Z,14.80
2023-03-26T05:26:25.602Z,21.82
2023-03-26T05:28:53.228Z,24.00
2023-03-26T05:31:23.175Z,31.93
2023-03-26T05:33:54.416Z,21.82
2023-03-26T05:36:24.537Z,16.57
2023-03-26T05:39:05.895Z,15.23
2023-03-26T05:41:47.348Z,13.60
2023-03-26T05:44:15.136Z,13.40
2023-03-26T05:46:43.014Z,9.70
2023-03-26T05:49:11.771Z,8.88
2023-03-26T05:51:39.693Z,11.03
2023-03-26T05:54:15.088Z,13.70
2023-03-26T05:56:47.915Z,9.05
2023-03-26T05:59:36.157Z,5.58
2023-03-26T06:02:23.343Z,5.20
2023-03-26T06:05:12.155Z,5.20
2023-03-26T06:07:54.072Z,6.08
2023-03-26T06:10:22.526Z,7.55
2023-03-26T06:12:50.365Z,7.72
2023-03-26T06:15:18.303Z,6.97
2023-03-26T06:17:50.721Z,6.10
2023-03-26T06:20:20.631Z,5.55
2023-03-26T06:22:50.335Z,6.78
2023-03-26T06:25:22.472Z,5.15
2023-03-26T06:27:55.076Z,4.45
2023-03-26T06:30:42.061Z,4.92
2023-03-26T06:33:29.727Z,3.65
2023-03-26T06:35:59.453Z,3.95
2023-03-26T06:38:27.461Z,5.17
2023-03-26T06:41:04.976Z,5.42
2023-03-26T06:43:40.179Z,4.20
2023-03-26T06:46:10.680Z,8.33
2023-03-26T06:48:59.068Z,6.05
2023-03-26T06:51:46.221Z,6.97
2023-03-26T06:54:18.904Z,4.37
2023-03-26T06:56:58.457Z,3.20
2023-03-26T06:59:44.395Z,5.78
2023-03-26T07:02:30.645Z,5.58
2023-03-26T07:05:17.450Z,5.87
2023-03-26T07:08:03.977Z,7.03
2023-03-26T07:10:50.260Z,6.47
2023-03-26T07:13:32.399Z,4.00
2023-03-26T07:16:01.981Z,5.83
2023-03-26T07:18:31.509Z,5.55
2023-03-26T07:21:00.520Z,4.33
2023-03-26T07:23:30.722Z,3.30
2023-03-26T07:26:14.770Z,8.95
2023-03-26T07:29:04.476Z,4.58
2023-03-26T07:31:51.210Z,5.03
2023-03-26T07:34:45.687Z,9.28
2023-03-26T07:37:36.123Z,3.85
2023-03-26T07:40:33.689Z,4.83
2023-03-26T07:43:08.772Z,5.40
2023-03-26T07:45:56.945Z,18.12
2023-03-26T07:48:43.146Z,10.53
2023-03-26T07:51:14.191Z,4.05
2023-03-26T07:53:50.505Z,2.55
2023-03-26T07:56:55.852Z,3.77
2023-03-26T08:00:00.403Z,5.80
2023-03-26T08:03:18.657Z,3.30
2023-03-26T08:06:30.033Z,3.35
2023-03-26T08:09:31.561Z,5.80
2023-03-26T08:12:36.839Z,7.15
2023-03-26T08:15:33.532Z,4.62
2023-03-26T08:18:35.178Z,2.83
2023-03-26T08:21:10.774Z,1.70
2023-03-26T08:24:15.983Z,2.20
2023-03-26T08:27:12.116Z,3.83
2023-03-26T08:30:02.601Z,6.47
2023-03-26T08:32:33.127Z,2.60
2023-03-26T08:35:00.726Z,3.50
2023-03-26T08:37:28.751Z,4.22
2023-03-26T08:39:57.041Z,1.65
2023-03-26T08:43:00.473Z,1.85
2023-03-26T08:45:50.612Z,5.72
2023-03-26T08:48:49.296Z,4.65
2023-03-26T08:51:51.263Z,3.10
2023-03-26T08:54:56.187Z,2.85
2023-03-26T08:58:16.768Z,1.82
2023-03-26T09:01:26.608Z,9.75
2023-03-26T09:04:46.269Z,7.28
2023-03-26T09:07:39.984Z,2.62
2023-03-26T09:10:28.458Z,1.40
2023-03-26T09:13:26.155Z,2.22
2023-03-26T09:16:26.837Z,2.72
2023-03-26T09:19:24.119Z,8.13
2023-03-26T09:22:16.079Z,3.90
2023-03-26T09:25:10.042Z,3.70
2023-03-26T09:28:12.330Z,5.17
2023-03-26T09:31:00.781Z,2.37
2023-03-26T09:33:53.348Z,2.58
2023-03-26T09:36:47.902Z,5.72
2023-03-26T09:39:52.653Z,6.20
2023-03-26T09:42:56.484Z,4.45
2023-03-26T09:45:38.031Z,4.33
2023-03-26T09:51:34.035Z,3.98
2023-03-26T09:54:51.178Z,4.03
2023-03-26T09:58:03.373Z,8.53
2023-03-26T10:00:48.690Z,4.90
2023-03-26T10:04:12.382Z,3.58
2023-03-26T10:06:48.360Z,3.10
2023-03-26T10:09:40.365Z,4.97
2023-03-26T10:12:22.557Z,1.57
2023-03-26T10:15:33.298Z,2.08
2023-03-26T10:18:28.108Z,2.15
2023-03-26T10:21:05.141Z,2.62
2023-03-26T10:24:13.797Z,4.42
2023-03-26T10:27:09.033Z,5.87
2023-03-26T10:29:52.954Z,1.20
2023-03-26T10:32:39.027Z,1.00
2023-03-26T10:35:29.446Z,4.05
2023-03-26T10:38:36.366Z,3.92
2023-03-26T10:41:17.211Z,1.92
2023-03-26T10:44:22.432Z,2.75
2023-03-26T10:47:04.108Z,2.10
2023-03-26T10:50:03.290Z,3.90
2023-03-26T10:52:57.912Z,14.38
2023-03-26T10:55:40.397Z,4.30
2023-03-26T10:58:16.507Z,5.75
2023-03-26T11:00:49.578Z,7.58
2023-03-26T11:03:54.306Z,5.22
2023-03-26T11:06:40.974Z,4.80
2023-03-26T11:09:23.889Z,1.50
2023-03-26T11:12:26.288Z,1.72
2023-03-26T11:15:27.923Z,2.33
2023-03-26T11:18:35.115Z,1.95
2023-03-26T11:21:36.113Z,1.40
2023-03-26T11:24:39.962Z,3.98
2023-03-26T11:27:26.552Z,4.33
2023-03-26T11:30:19.779Z,4.72
2023-03-26T11:32:55.323Z,2.30
2023-03-26T11:35:41.081Z,1.20
2023-03-26T11:38:14.003Z,1.40
2023-03-26T11:40:49.263Z,2.08
2023-03-26T11:43:24.535Z,5.12
2023-03-26T11:45:53.569Z,2.10
2023-03-26T11:48:29.952Z,2.02
2023-03-26T11:51:06.821Z,1.52
2023-03-26T11:53:39.617Z,2.52
2023-03-26T11:56:15.554Z,1.75
2023-03-26T11:59:16.917Z,2.75
2023-03-26T12:01:58.207Z,1.32
2023-03-26T12:04:40.614Z,3.10
2023-03-26T12:07:33.014Z,1.37
2023-03-26T12:10:18.179Z,2.52
2023-03-26T12:12:40.872Z,2.98
2023-03-26T12:15:19.110Z,14.98
2023-03-26T12:17:55.809Z,2.20
2023-03-26T12:20:33.003Z,5.35
2023-03-26T12:23:06.207Z,8.28
2023-03-26T12:25:38.712Z,2.67
2023-03-26T12:28:19.399Z,17.00
2023-03-26T12:31:03.465Z,96.70
2023-03-26T12:33:34.204Z,9.65
2023-03-26T12:36:24.197Z,18.60
2023-03-26T12:39:16.748Z,3.50
2023-03-26T12:43:19.841Z,3.10
2023-03-26T12:44:55.667Z,2.30
2023-03-26T12:47:59.993Z,5.15
2023-03-26T12:49:55.847Z,8.50
2023-03-26T12:53:02.110Z,7.75
2023-03-26T12:55:41.752Z,11.45
2023-03-26T12:58:20.890Z,4.05
2023-03-26T13:01:06.202Z,9.00
2023-03-26T13:03:50.575Z,2.98
2023-03-26T13:07:01.971Z,2.25
2023-03-26T13:09:47.406Z,5.58
2023-03-26T13:12:33.683Z,5.60
2023-03-26T13:15:32.597Z,8.60
2023-03-26T13:18:43.968Z,4.53
2023-03-26T13:21:19.906Z,1.92
2023-03-26T13:24:11.072Z,5.37
2023-03-26T13:26:55.898Z,4.78
2023-03-26T13:29:56.078Z,2.33
2023-03-26T13:32:38.198Z,2.45
2023-03-26T13:35:37.454Z,2.67
2023-03-26T13:38:25.495Z,3.65
2023-03-26T13:41:05.080Z,3.12
2023-03-26T13:43:44.513Z,4.80
2023-03-26T13:46:35.383Z,2.20
2023-03-26T13:49:13.154Z,2.95
2023-03-26T13:51:57.957Z,1.90
2023-03-26T13:54:33.888Z,3.40
2023-03-26T13:57:13.274Z,80.95
2023-03-26T14:00:01.536Z,32.75
2023-03-26T14:02:59.083Z,5.33
2023-03-26T14:05:41.301Z,7.22
2023-03-26T14:08:23.802Z,3.22
2023-03-26T14:11:18.272Z,9.20
2023-03-26T14:14:13.757Z,1.47
2023-03-26T14:16:49.252Z,1.95
2023-03-26T14:19:37.129Z,2.25
2023-03-26T14:22:33.261Z,2.70
2023-03-26T14:25:16.398Z,3.62
2023-03-26T14:28:07.804Z,5.37
2023-03-26T14:30:55.139Z,5.90
2023-03-26T14:34:04.359Z,3.75
2023-03-26T14:37:04.377Z,3.47
2023-03-26T14:40:09.865Z,3.12
2023-03-26T14:43:07.628Z,3.47
2023-03-26T14:45:43.505Z,3.92
2023-03-26T14:49:04.021Z,4.50
2023-03-26T14:52:15.491Z,4.42
2023-03-26T14:54:52.055Z,4.17
2023-03-26T14:57:25.349Z,3.83
2023-03-26T15:00:38.358Z,20.75
2023-03-26T15:03:28.326Z,7.75
2023-03-26T15:06:09.891Z,27.27
2023-03-26T15:09:02.658Z,19.60
2023-03-26T15:11:55.580Z,5.47
2023-03-26T15:14:53.352Z,5.00
2023-03-26T15:17:43.194Z,5.40
2023-03-26T15:20:43.256Z,8.35
2023-03-26T15:23:42.576Z,3.98
2023-03-26T15:26:46.494Z,4.37
2023-03-26T15:29:55.038Z,3.85
2023-03-26T15:33:16.173Z,3.77
2023-03-26T15:36:25.859Z,19.70
2023-03-26T15:39:18.997Z,6.95
2023-03-26T15:42:14.981Z,5.67
2023-03-26T15:47:51.899Z,8.80
2023-03-26T15:50:57.782Z,5.10
2023-03-26T15:53:53.728Z,11.57
2023-03-26T15:57:00.397Z,6.37
2023-03-26T15:59:42.668Z,4.03
2023-03-26T16:02:27.430Z,2.00
2023-03-26T16:05:33.829Z,4.55
2023-03-26T16:10:55.597Z,8.48
2023-03-26T16:13:38.130Z,5.35
2023-03-26T16:16:22.510Z,16.57
2023-03-26T16:19:20.685Z,12.15
2023-03-26T16:22:09.412Z,12.40
2023-03-26T16:24:45.963Z,11.65
2023-03-26T16:27:28.260Z,11.73
2023-03-26T16:30:08.366Z,20.48
2023-03-26T16:32:55.560Z,29.25
2023-03-26T16:35:48.359Z,29.90
2023-03-26T16:38:18.639Z,21.85
2023-03-26T16:41:06.879Z,18.45
2023-03-26T16:44:04.890Z,17.57
2023-03-26T16:47:10.024Z,17.55
2023-03-26T16:50:18.208Z,37.13
2023-03-26T16:53:12.975Z,45.88
2023-03-26T16:56:20.631Z,44.67
2023-03-26T16:58:57.782Z,31.40
2023-03-26T17:01:48.419Z,34.18
2023-03-26T17:04:25.200Z,29.98
2023-03-26T17:07:08.529Z,37.88
2023-03-26T17:09:53.861Z,40.20
2023-03-26T17:13:01.015Z,33.10
2023-03-26T17:15:49.389Z,20.72
2023-03-26T17:21:57.110Z,25.62
2023-03-26T17:28:17.569Z,39.33
2023-03-26T17:31:25.885Z,166.85
2023-03-26T17:33:54.009Z,140.77
2023-03-26T17:36:42.016Z,126.87
2023-03-26T17:39:49.022Z,97.25
2023-03-26T17:42:32.481Z,74.22
2023-03-26T17:45:21.588Z,65.25
2023-03-26T17:48:16.988Z,51.28
2023-03-26T17:50:55.501Z,44.45
2023-03-26T17:53:32.676Z,46.20
2023-03-26T17:56:05.140Z,55.17
2023-03-26T17:58:44.004Z,57.62
2023-03-26T18:01:29.470Z,50.83
2023-03-26T18:04:02.083Z,43.30
2023-03-26T18:06:47.395Z,47.45
2023-03-26T18:10:14.180Z,55.80
2023-03-26T18:13:09.988Z,56.13
2023-03-26T18:15:48.713Z,45.03
2023-03-26T18:18:27.957Z,30.45
2023-03-26T18:21:03.499Z,30.37
2023-03-26T18:23:43.408Z,35.13
2023-03-26T18:26:40.574Z,31.02
2023-03-26T18:29:19.109Z,32.53
2023-03-26T18:31:51.709Z,39.10
2023-03-26T18:34:23.813Z,185.75
2023-03-26T18:37:05.942Z,246.43
2023-03-26T18:39:33.744Z,166.57
2023-03-26T18:42:01.731Z,63.00
2023-03-26T18:44:32.448Z,53.68
2023-03-26T18:47:09.220Z,57.58
2023-03-26T18:49:37.391Z,52.27
2023-03-26T18:52:06.130Z,48.63
2023-03-26T18:54:38.058Z,54.73
2023-03-26T18:57:25.701Z,54.05
2023-03-26T19:00:00.479Z,56.55
2023-03-26T19:02:29.310Z,57.85
2023-03-26T19:04:57.617Z,53.60
2023-03-26T19:07:27.690Z,46.33
2023-03-26T19:10:00.867Z,43.68
2023-03-26T19:12:36.028Z,43.23
2023-03-26T19:15:08.611Z,39.80
2023-03-26T19:17:48.604Z,40.23
2023-03-26T19:20:24.106Z,36.83
2023-03-26T19:25:31.516Z,35.15
2023-03-26T19:28:02.610Z,41.02
2023-03-26T19:30:33.902Z,44.33
2023-03-26T19:33:17.763Z,36.90
2023-03-26T19:36:05.583Z,37.28
2023-03-26T19:38:53.062Z,46.70
2023-03-26T19:41:28.283Z,37.35
2023-03-26T19:46:34.154Z,31.17
2023-03-26T19:49:04.887Z,27.60
2023-03-26T19:51:38.509Z,26.82
2023-03-26T19:54:15.586Z,25.92
2023-03-26T19:56:44.065Z,37.05
2023-03-26T19:59:14.672Z,40.80
2023-03-26T20:01:42.952Z,57.10
2023-03-26T20:04:13.087Z,54.33
2023-03-26T20:06:44.147Z,57.27
2023-03-26T20:09:13.893Z,46.50
2023-03-26T20:11:42.050Z,46.05
2023-03-26T20:14:17.355Z,47.10
2023-03-26T20:16:47.118Z,44.30
2023-03-26T20:19:15.476Z,37.85
2023-03-26T20:21:44.457Z,44.38
2023-03-26T20:24:16.341Z,33.98
2023-03-26T20:26:45.803Z,29.25
2023-03-26T20:29:14.902Z,26.20
2023-03-26T20:31:43.790Z,28.85
2023-03-26T20:34:16.680Z,27.07
2023-03-26T20:36:45.832Z,28.05
2023-03-26T20:39:14.349Z,28.57
2023-03-26T20:41:46.244Z,21.90
2023-03-26T20:44:18.541Z,22.77
2023-03-26T20:46:48.294Z,23.52
2023-03-26T20:49:17.163Z,24.82
2023-03-26T20:51:46.218Z,20.27
2023-03-26T20:54:21.687Z,23.67
2023-03-26T20:56:50.203Z,20.02
2023-03-26T20:59:25.689Z,24.50
2023-03-26T21:04:22.341Z,55.25
2023-03-26T21:06:51.880Z,66.12
2023-03-26T21:09:24.676Z,66.22
2023-03-26T21:12:00.844Z,57.38
2023-03-26T21:14:41.949Z,56.08
2023-03-26T21:17:16.845Z,38.98
2023-03-26T21:19:45.666Z,25.88
2023-03-26T21:22:39.923Z,20.57
2023-03-26T21:25:34.537Z,18.60
2023-03-26T21:28:35.764Z,18.45
2023-03-26T21:30:58.833Z,16.95
2023-03-26T21:33:27.968Z,19.92
2023-03-26T21:35:56.747Z,14.98
2023-03-26T21:38:25.520Z,14.03
2023-03-26T21:40:58.840Z,16.75
2023-03-26T21:43:25.689Z,14.23
2023-03-26T21:45:54.580Z,17.45
2023-03-26T21:48:23.307Z,14.35
2023-03-26T21:50:51.593Z,16.15
2023-03-26T21:53:21.561Z,13.58
2023-03-26T21:55:55.416Z,16.17
2023-03-26T21:58:52.679Z,15.20
2023-03-26T22:01:31.771Z,16.93
2023-03-26T22:04:11.156Z,17.45
2023-03-26T22:06:47.486Z,15.15
2023-03-26T22:09:18.516Z,15.38
2023-03-26T22:11:45.821Z,12.07
2023-03-26T22:14:13.872Z,12.78
2023-03-26T22:16:41.658Z,13.75
2023-03-26T22:19:10.332Z,13.43
2023-03-26T22:21:38.351Z,13.13
2023-03-26T22:24:07.022Z,15.65
2023-03-26T22:26:37.084Z,15.43
2023-03-26T22:29:07.091Z,15.95
2023-03-26T22:31:40.256Z,13.80
2023-03-26T22:34:08.670Z,11.00
2023-03-26T22:36:38.387Z,14.38
2023-03-26T22:39:06.577Z,12.07
2023-03-26T22:41:34.320Z,14.63
2023-03-26T22:44:18.557Z,10.40
2023-03-26T22:46:32.322Z,14.63
2023-03-26T22:48:59.994Z,13.58
2023-03-26T22:51:29.204Z,12.05
2023-03-26T22:53:57.367Z,13.15
2023-03-26T22:56:25.199Z,21.15
2023-03-26T22:58:53.016Z,27.50
2023-03-26T23:01:24.368Z,54.03
2023-03-26T23:03:52.164Z,74.20
2023-03-26T23:06:20.970Z,88.17
2023-03-26T23:08:49.208Z,53.10
2023-03-26T23:11:20.969Z,39.23
2023-03-26T23:13:49.452Z,19.70
2023-03-26T23:16:17.782Z,17.60
2023-03-26T23:18:46.147Z,9.23
2023-03-26T23:21:17.779Z,10.10
2023-03-26T23:23:46.400Z,6.33
2023-03-26T23:26:15.113Z,7.33
2023-03-26T23:28:43.081Z,7.45
2023-03-26T23:31:12.628Z,5.12
2023-03-26T23:33:43.763Z,10.20
2023-03-26T23:36:16.680Z,7.37
2023-03-26T23:38:49.229Z,5.78
2023-03-26T23:41:21.128Z,6.62
2023-03-26T23:43:54.696Z,6.17
2023-03-26T23:46:23.434Z,5.65
2023-03-26T23:48:52.163Z,6.42
2023-03-26T23:51:21.137Z,7.08
2023-03-26T23:53:49.056Z,22.55
2023-03-26T23:56:17.552Z,54.25
2023-03-26T23:58:45.301Z,50.90
